createdAt,value
2023-04-24T00:03:38.252Z,75326.81
2023-04-24T00:11:12.368Z,75320.69
2023-04-24T00:18:48.836Z,75316.59
2023-04-24T00:26:22.708Z,75316.59
2023-04-24T00:33:58.028Z,75314.56
2023-04-24T00:41:32.501Z,75310.47
2023-04-24T00:49:07.957Z,75310.47
2023-04-24T00:56:42.315Z,75314.56
2023-04-24T01:04:20.185Z,75324.78
2023-04-24T01:11:54.992Z,75320.69
2023-04-24T01:19:30.762Z,75312.53
2023-04-24T01:27:06.061Z,75322.72
2023-04-24T01:34:40.755Z,75332.94
2023-04-24T01:42:16.548Z,75349.25
2023-04-24T01:49:51.836Z,75353.34
2023-04-24T01:57:27.511Z,75347.22
2023-04-24T02:05:02.152Z,75355.38
2023-04-24T02:12:37.340Z,75341.09
2023-04-24T02:20:11.507Z,75324.78
2023-04-24T02:27:47.066Z,75322.72
2023-04-24T02:35:21.159Z,75330.88
2023-04-24T02:42:56.457Z,75347.22
2023-04-24T02:50:30.342Z,75349.25
2023-04-24T02:58:05.727Z,75347.22
2023-04-24T03:05:39.545Z,75339.06
2023-04-24T03:13:14.950Z,75339.06
2023-04-24T03:20:48.851Z,75339.06
2023-04-24T03:28:24.388Z,75339.06
2023-04-24T03:35:58.343Z,75337.00
2023-04-24T03:43:34.472Z,75328.84
2023-04-24T03:51:08.284Z,75318.66
2023-04-24T03:58:44.381Z,75310.47
2023-04-24T04:14:12.092Z,75298.25
2023-04-24T04:21:46.827Z,75302.31
2023-04-24T04:29:23.730Z,75294.16
2023-04-24T04:37:00.740Z,75298.25
2023-04-24T04:44:37.184Z,75298.25
2023-04-24T04:52:11.705Z,75298.25
2023-04-24T04:59:46.799Z,75302.31
2023-04-24T05:07:20.811Z,75290.06
2023-04-24T05:14:56.316Z,75283.97
2023-04-24T05:22:30.266Z,75267.63
2023-04-24T05:30:07.287Z,75257.44
2023-04-24T05:37:41.312Z,75255.38
2023-04-24T05:45:17.934Z,75245.19
2023-04-24T05:52:51.904Z,75247.22
2023-04-24T06:00:27.978Z,75237.03
2023-04-24T06:08:01.938Z,75224.78
2023-04-24T06:15:37.521Z,75216.63
2023-04-24T06:23:11.606Z,75186.03
2023-04-24T06:30:46.991Z,75167.66
2023-04-24T06:38:21.313Z,75135.00
2023-04-24T06:45:58.272Z,75096.25
2023-04-24T06:53:32.641Z,75069.72
2023-04-24T07:01:08.083Z,75049.31
2023-04-24T07:08:43.009Z,75033.00
2023-04-24T07:16:18.520Z,75012.59
2023-04-24T07:23:52.482Z,74969.75
2023-04-24T07:31:27.972Z,74953.41
2023-04-24T07:39:01.966Z,74922.81
2023-04-24T07:46:37.829Z,74884.06
2023-04-24T07:54:11.802Z,74861.59
2023-04-24T08:01:47.137Z,74824.88
2023-04-24T08:09:21.060Z,74804.47
2023-04-24T08:16:57.456Z,74790.19
2023-04-24T08:24:31.290Z,74788.16
2023-04-24T08:32:06.513Z,74743.28
2023-04-24T08:39:40.885Z,74737.16
2023-04-24T08:47:17.663Z,74702.47
2023-04-24T08:54:51.663Z,74710.63
2023-04-24T09:02:28.297Z,74720.84
2023-04-24T09:10:03.974Z,74714.72
2023-04-24T09:17:40.179Z,74690.22
2023-04-24T09:25:14.575Z,74631.06
2023-04-24T09:32:49.914Z,74661.69
2023-04-24T09:40:25.217Z,74684.13
2023-04-24T09:48:01.678Z,74686.16
2023-04-24T09:55:40.977Z,74635.16
2023-04-24T10:03:16.551Z,74545.38
2023-04-24T10:10:50.502Z,74573.94
2023-04-24T10:18:27.367Z,74596.38
2023-04-24T10:26:02.783Z,74616.78
2023-04-24T10:33:38.898Z,74661.69
2023-04-24T10:41:17.574Z,74665.75
2023-04-24T10:48:59.387Z,74663.72
2023-04-24T10:56:35.366Z,74614.75
2023-04-24T11:04:11.769Z,74576.00
2023-04-24T11:11:47.936Z,74596.38
2023-04-24T11:19:26.454Z,74604.56
2023-04-24T11:27:06.949Z,74631.06
2023-04-24T11:34:42.801Z,74657.59
2023-04-24T11:42:17.585Z,74645.34
2023-04-24T11:49:54.048Z,74629.03
2023-04-24T11:57:29.961Z,74578.03
2023-04-24T12:05:06.110Z,74539.28
2023-04-24T12:12:40.541Z,74498.47
2023-04-24T12:20:16.619Z,74488.28
2023-04-24T12:27:55.733Z,74449.50
2023-04-24T12:35:32.820Z,74408.72
2023-04-24T12:43:16.418Z,74449.50
2023-04-24T12:50:51.813Z,74406.66
2023-04-24T12:58:25.941Z,74437.28
2023-04-24T13:06:01.284Z,74416.88
2023-04-24T13:13:35.104Z,74404.63
2023-04-24T13:21:10.800Z,74396.47
2023-04-24T13:28:44.895Z,74392.41
2023-04-24T13:36:20.312Z,74429.13
2023-04-24T13:43:54.255Z,74443.38
2023-04-24T13:51:30.119Z,74463.78
2023-04-24T13:59:04.075Z,74457.66
2023-04-24T14:06:39.571Z,74433.19
2023-04-24T14:14:13.790Z,74433.19
2023-04-24T14:21:49.163Z,74437.28
2023-04-24T14:29:23.009Z,74437.28
2023-04-24T14:36:59.749Z,74465.84
2023-04-24T14:44:34.126Z,74492.34
2023-04-24T14:52:09.339Z,74480.13
2023-04-24T14:59:43.136Z,74435.22
2023-04-24T15:07:18.421Z,74398.50
2023-04-24T15:14:52.293Z,74435.22
2023-04-24T15:22:27.643Z,74527.03
2023-04-24T15:30:01.434Z,74588.22
2023-04-24T15:37:37.015Z,74594.34
2023-04-24T15:45:11.972Z,74602.50
2023-04-24T15:52:47.386Z,74635.16
2023-04-24T16:00:21.870Z,74663.72
2023-04-24T16:07:57.105Z,74678.00
2023-04-24T16:15:31.319Z,74686.16
2023-04-24T16:23:06.531Z,74735.13
2023-04-24T16:30:40.814Z,74782.03
2023-04-24T16:38:16.374Z,74922.81
2023-04-24T16:45:50.241Z,74992.19
2023-04-24T16:53:25.543Z,74994.22
2023-04-24T17:00:59.969Z,75018.72
2023-04-24T17:08:35.171Z,75090.13
2023-04-24T17:16:08.790Z,75116.66
2023-04-24T17:23:44.087Z,75177.84
2023-04-24T17:31:18.070Z,75181.94
2023-04-24T17:38:53.384Z,75202.34
2023-04-24T17:46:27.191Z,75251.31
2023-04-24T17:54:03.029Z,75322.72
2023-04-24T18:01:36.885Z,75334.97
2023-04-24T18:09:13.101Z,75377.81
2023-04-24T18:16:48.238Z,75416.59
2023-04-24T18:24:24.189Z,75434.97
2023-04-24T18:31:58.723Z,75485.97
2023-04-24T18:39:35.705Z,75510.47
2023-04-24T18:47:09.737Z,75534.94
2023-04-24T18:54:44.943Z,75571.69
2023-04-24T19:02:19.511Z,75600.25
2023-04-24T19:09:54.989Z,75628.81
2023-04-24T19:17:29.113Z,75636.97
2023-04-24T19:25:05.372Z,75655.34
2023-04-24T19:32:39.638Z,75677.78
2023-04-24T19:40:15.022Z,75685.94
2023-04-24T19:47:48.929Z,75698.19
2023-04-24T19:55:24.202Z,75714.53
2023-04-24T20:02:58.775Z,75710.44
2023-04-24T20:10:34.341Z,75718.59
2023-04-24T20:18:08.125Z,75734.94
2023-04-24T20:25:43.397Z,75745.13
2023-04-24T20:33:17.282Z,75747.19
2023-04-24T20:48:29.460Z,75771.66
2023-04-24T20:56:05.392Z,75769.63
2023-04-24T21:03:39.312Z,75771.66
2023-04-24T21:11:14.647Z,75773.72
2023-04-24T21:18:48.446Z,75794.13
2023-04-24T21:26:23.650Z,75790.03
2023-04-24T21:33:57.366Z,75781.88
2023-04-24T21:41:33.074Z,75785.94
2023-04-24T21:49:06.847Z,75810.44
2023-04-24T21:56:42.473Z,75820.63
2023-04-24T22:04:16.432Z,75836.97
2023-04-24T22:11:51.659Z,75824.72
2023-04-24T22:19:26.125Z,75836.97
2023-04-24T22:27:01.349Z,75853.28
2023-04-24T22:34:35.663Z,75857.38
2023-04-24T22:42:10.952Z,75881.88
2023-04-24T22:49:44.686Z,75879.81
2023-04-24T22:57:19.936Z,75869.63
2023-04-24T23:04:54.309Z,75851.25
2023-04-24T23:12:29.828Z,75853.28
2023-04-24T23:20:04.166Z,75857.38
2023-04-24T23:27:39.697Z,75853.28
2023-04-24T23:35:13.477Z,75853.28
2023-04-24T23:42:59.697Z,75851.25
2023-04-24T23:50:39.893Z,75865.53
2023-04-24T23:58:15.045Z,75881.88
